createdAt,value
2017-09-07T00:00:23.338Z,100674
2017-09-07T00:02:53.113Z,100673
2017-09-07T00:05:22.299Z,100676
2017-09-07T00:07:52.738Z,100674
2017-09-07T00:10:21.877Z,100666
2017-09-07T00:12:50.977Z,100661
2017-09-07T00:15:21.358Z,100665
2017-09-07T00:17:50.508Z,100666
2017-09-07T00:20:19.654Z,100668
2017-09-07T00:22:48.903Z,100666
2017-09-07T00:25:18.021Z,100661
2017-09-07T00:27:47.130Z,100664
2017-09-07T00:30:16.487Z,100656
2017-09-07T00:32:45.664Z,100661
2017-09-07T00:35:14.782Z,100657
2017-09-07T00:37:45.219Z,100653
2017-09-07T00:40:14.309Z,100644
2017-09-07T00:42:43.691Z,100647
2017-09-07T00:45:13.221Z,100651
2017-09-07T00:47:43.168Z,100649
2017-09-07T00:50:12.341Z,100651
2017-09-07T00:52:41.806Z,100647
2017-09-07T00:55:12.103Z,100649
2017-09-07T00:57:41.239Z,100647
2017-09-07T01:00:10.402Z,100650
2017-09-07T01:02:39.532Z,100644
2017-09-07T01:05:09.480Z,100645
2017-09-07T01:07:38.858Z,100646
2017-09-07T01:10:08.019Z,100645
2017-09-07T01:12:37.355Z,100643
2017-09-07T01:15:06.861Z,100641
2017-09-07T01:17:37.053Z,100642
2017-09-07T01:20:06.340Z,100649
2017-09-07T01:22:35.634Z,100649
2017-09-07T01:25:05.166Z,100656
2017-09-07T01:27:34.429Z,100655
2017-09-07T01:30:03.849Z,100659
2017-09-07T01:32:33.064Z,100662
2017-09-07T01:35:02.161Z,100659
2017-09-07T01:37:31.577Z,100660
2017-09-07T01:40:00.741Z,100657
2017-09-07T01:42:30.985Z,100658
2017-09-07T01:45:00.364Z,100658
2017-09-07T01:47:29.485Z,100651
2017-09-07T01:49:58.659Z,100649
2017-09-07T01:52:27.990Z,100645
2017-09-07T01:54:57.177Z,100652
2017-09-07T01:57:26.324Z,100647
2017-09-07T01:59:55.561Z,100647
2017-09-07T02:02:24.785Z,100641
2017-09-07T02:04:53.885Z,100642
2017-09-07T02:07:23.312Z,100643
2017-09-07T02:09:52.430Z,100642
2017-09-07T02:12:21.526Z,100641
2017-09-07T02:14:50.963Z,100641
2017-09-07T02:17:20.059Z,100640
2017-09-07T02:19:50.042Z,100637
2017-09-07T02:22:19.276Z,100643
2017-09-07T02:24:48.389Z,100639
2017-09-07T02:27:17.506Z,100637
2017-09-07T02:29:46.885Z,100644
2017-09-07T02:32:16.010Z,100647
2017-09-07T02:34:45.304Z,100645
2017-09-07T02:37:15.647Z,100641
2017-09-07T02:39:45.453Z,100640
2017-09-07T02:42:14.595Z,100643
2017-09-07T02:44:45.043Z,100645
2017-09-07T02:47:14.135Z,100645
2017-09-07T02:49:43.242Z,100645
2017-09-07T02:52:12.355Z,100643
2017-09-07T02:54:41.490Z,100640
2017-09-07T02:57:11.862Z,100640
2017-09-07T02:59:41.172Z,100639
2017-09-07T03:02:11.284Z,100636
2017-09-07T03:04:48.748Z,100638
2017-09-07T03:07:20.186Z,100633
2017-09-07T03:09:50.070Z,100629
2017-09-07T03:12:19.166Z,100630
2017-09-07T03:14:48.669Z,100624
2017-09-07T03:17:18.104Z,100623
2017-09-07T03:19:47.300Z,100616
2017-09-07T03:22:16.422Z,100618
2017-09-07T03:24:45.861Z,100619
2017-09-07T03:27:15.031Z,100617
2017-09-07T03:29:44.150Z,100614
2017-09-07T03:32:13.574Z,100610
2017-09-07T03:34:42.666Z,100611
2017-09-07T03:37:11.763Z,100610
2017-09-07T03:39:40.961Z,100611
2017-09-07T03:42:10.113Z,100610
2017-09-07T03:44:39.245Z,100612
2017-09-07T03:47:08.392Z,100612
2017-09-07T03:49:37.533Z,100609
2017-09-07T03:52:06.778Z,100615
2017-09-07T03:54:36.208Z,100613
2017-09-07T03:57:05.305Z,100614
2017-09-07T03:59:35.074Z,100615
2017-09-07T04:02:05.289Z,100615
2017-09-07T04:04:34.432Z,100616
2017-09-07T04:07:03.581Z,100615
2017-09-07T04:09:32.911Z,100616
2017-09-07T04:12:02.022Z,100613
2017-09-07T04:14:31.236Z,100621
2017-09-07T04:17:00.779Z,100623
2017-09-07T04:19:30.224Z,100618
2017-09-07T04:21:59.381Z,100620
2017-09-07T04:24:28.948Z,100621
2017-09-07T04:26:58.129Z,100627
2017-09-07T04:29:27.232Z,100623
2017-09-07T04:31:56.956Z,100620
2017-09-07T04:34:26.122Z,100616
2017-09-07T04:36:55.218Z,100618
2017-09-07T04:39:24.617Z,100616
2017-09-07T04:41:53.723Z,100622
2017-09-07T04:44:23.604Z,100630
2017-09-07T04:46:53.055Z,100631
2017-09-07T04:49:23.102Z,100630
2017-09-07T04:51:52.228Z,100626
2017-09-07T04:54:21.362Z,100623
2017-09-07T04:56:50.483Z,100624
2017-09-07T04:59:19.609Z,100623
2017-09-07T05:01:48.771Z,100623
2017-09-07T05:04:17.915Z,100620
2017-09-07T05:06:47.092Z,100623
2017-09-07T05:09:16.235Z,100627
2017-09-07T05:11:45.437Z,100626
2017-09-07T05:14:14.534Z,100621
2017-09-07T05:16:43.877Z,100619
2017-09-07T05:19:13.015Z,100613
2017-09-07T05:21:42.111Z,100615
2017-09-07T05:24:11.517Z,100617
2017-09-07T05:26:40.639Z,100614
2017-09-07T05:29:10.016Z,100620
2017-09-07T05:31:39.444Z,100617
2017-09-07T05:34:08.679Z,100617
2017-09-07T05:36:37.894Z,100622
2017-09-07T05:39:07.481Z,100623
2017-09-07T05:41:40.465Z,100626
2017-09-07T05:44:09.807Z,100626
2017-09-07T05:46:38.940Z,100629
2017-09-07T05:49:08.057Z,100626
2017-09-07T05:51:37.591Z,100631
2017-09-07T05:54:06.715Z,100630
2017-09-07T05:56:36.807Z,100631
2017-09-07T05:59:06.246Z,100630
2017-09-07T06:01:35.454Z,100643
2017-09-07T06:04:04.674Z,100643
2017-09-07T06:06:34.694Z,100638
2017-09-07T06:09:04.030Z,100640
2017-09-07T06:11:33.234Z,100647
2017-09-07T06:14:02.932Z,100641
2017-09-07T06:16:32.077Z,100643
2017-09-07T06:19:01.322Z,100642
2017-09-07T06:21:30.626Z,100645
2017-09-07T06:23:59.841Z,100641
2017-09-07T06:26:29.010Z,100644
2017-09-07T06:28:58.422Z,100649
2017-09-07T06:31:27.591Z,100649
2017-09-07T06:33:57.426Z,100648
2017-09-07T06:36:26.595Z,100649
2017-09-07T06:38:56.545Z,100638
2017-09-07T06:41:25.663Z,100638
2017-09-07T06:43:55.082Z,100642
2017-09-07T06:46:24.245Z,100640
2017-09-07T06:48:53.357Z,100642
2017-09-07T06:51:22.606Z,100641
2017-09-07T06:53:51.690Z,100641
2017-09-07T06:56:20.839Z,100641
2017-09-07T06:58:50.175Z,100642
2017-09-07T07:01:19.304Z,100639
2017-09-07T07:03:48.437Z,100642
2017-09-07T07:06:18.892Z,100639
2017-09-07T07:08:48.276Z,100648
2017-09-07T07:11:17.395Z,100646
2017-09-07T07:13:46.948Z,100648
2017-09-07T07:16:17.120Z,100654
2017-09-07T07:18:46.394Z,100650
2017-09-07T07:21:15.748Z,100659
2017-09-07T07:23:45.022Z,100651
2017-09-07T07:26:14.734Z,100649
2017-09-07T07:28:44.034Z,100657
2017-09-07T07:31:13.929Z,100654
2017-09-07T07:33:43.164Z,100656
2017-09-07T07:36:12.465Z,100653
2017-09-07T07:38:41.566Z,100650
2017-09-07T07:41:11.588Z,100651
2017-09-07T07:43:41.143Z,100654
2017-09-07T07:46:10.289Z,100656
2017-09-07T07:48:39.406Z,100652
2017-09-07T07:51:08.895Z,100652
2017-09-07T07:53:38.532Z,100646
2017-09-07T07:56:07.893Z,100654
2017-09-07T07:58:37.343Z,100660
2017-09-07T08:01:06.623Z,100661
2017-09-07T08:03:35.816Z,100656
2017-09-07T08:06:05.463Z,100657
2017-09-07T08:08:34.872Z,100661
2017-09-07T08:11:04.061Z,100652
2017-09-07T08:13:33.432Z,100660
2017-09-07T08:16:03.727Z,100661
2017-09-07T08:18:32.942Z,100666
2017-09-07T08:21:02.246Z,100658
2017-09-07T08:23:31.430Z,100655
2017-09-07T08:26:00.642Z,100655
2017-09-07T08:28:31.033Z,100658
2017-09-07T08:31:00.322Z,100659
2017-09-07T08:33:29.474Z,100663
2017-09-07T08:36:02.871Z,100660
2017-09-07T08:38:32.140Z,100654
2017-09-07T08:41:02.149Z,100658
2017-09-07T08:43:31.396Z,100656
2017-09-07T08:46:02.325Z,100653
2017-09-07T08:48:32.826Z,100652
2017-09-07T08:51:02.250Z,100654
2017-09-07T08:53:31.462Z,100648
2017-09-07T08:56:00.865Z,100648
2017-09-07T08:58:30.427Z,100648
2017-09-07T09:01:00.403Z,100653
2017-09-07T09:03:29.646Z,100650
2017-09-07T09:05:59.082Z,100651
2017-09-07T09:08:29.294Z,100651
2017-09-07T09:10:58.641Z,100650
2017-09-07T09:13:28.306Z,100655
2017-09-07T09:15:57.407Z,100654
2017-09-07T09:18:26.748Z,100652
2017-09-07T09:20:56.902Z,100652
2017-09-07T09:23:26.101Z,100642
2017-09-07T09:25:55.290Z,100646
2017-09-07T09:28:24.424Z,100640
2017-09-07T09:30:53.545Z,100638
2017-09-07T09:33:24.831Z,100641
2017-09-07T09:35:54.061Z,100641
2017-09-07T09:38:23.583Z,100637
2017-09-07T09:40:55.329Z,100637
2017-09-07T09:43:27.308Z,100635
2017-09-07T09:45:59.724Z,100637
2017-09-07T09:48:29.868Z,100633
2017-09-07T09:50:59.062Z,100633
2017-09-07T09:53:33.139Z,100637
2017-09-07T09:56:14.980Z,100635
2017-09-07T09:58:50.758Z,100631
2017-09-07T10:01:30.768Z,100628
2017-09-07T10:04:00.724Z,100627
2017-09-07T10:06:40.667Z,100631
2017-09-07T10:09:14.318Z,100640
2017-09-07T10:11:55.101Z,100644
2017-09-07T10:14:33.095Z,100641
2017-09-07T10:17:03.986Z,100633
2017-09-07T10:19:33.397Z,100634
2017-09-07T10:22:02.711Z,100633
2017-09-07T10:24:35.888Z,100628
2017-09-07T10:27:08.673Z,100624
2017-09-07T10:29:39.544Z,100625
2017-09-07T10:32:13.613Z,100614
2017-09-07T10:34:43.025Z,100613
2017-09-07T10:37:13.786Z,100612
2017-09-07T10:39:47.428Z,100615
2017-09-07T10:42:16.858Z,100622
2017-09-07T10:44:49.766Z,100624
2017-09-07T10:47:21.775Z,100628
2017-09-07T10:49:51.038Z,100625
2017-09-07T10:52:20.171Z,100624
2017-09-07T10:54:55.090Z,100622
2017-09-07T10:57:24.211Z,100622
2017-09-07T10:59:56.242Z,100620
2017-09-07T11:02:25.491Z,100623
2017-09-07T11:04:54.607Z,100632
2017-09-07T11:07:24.954Z,100631
2017-09-07T11:09:54.103Z,100626
2017-09-07T11:12:24.515Z,100621
2017-09-07T11:14:53.926Z,100617
2017-09-07T11:17:23.223Z,100616
2017-09-07T11:19:52.331Z,100609
2017-09-07T11:22:22.803Z,100608
2017-09-07T11:24:51.900Z,100611
2017-09-07T11:27:21.082Z,100615
2017-09-07T11:29:50.437Z,100617
2017-09-07T11:32:20.504Z,100613
2017-09-07T11:34:49.732Z,100601
2017-09-07T11:37:18.948Z,100598
2017-09-07T11:39:51.151Z,100601
2017-09-07T11:42:21.070Z,100593
2017-09-07T11:44:50.662Z,100606
2017-09-07T11:47:21.460Z,100612
2017-09-07T11:49:51.121Z,100617
2017-09-07T11:52:21.037Z,100614
2017-09-07T11:54:51.954Z,100612
2017-09-07T11:57:21.059Z,100620
2017-09-07T11:59:56.431Z,100629
2017-09-07T12:02:25.634Z,100630
2017-09-07T12:04:55.337Z,100633
2017-09-07T12:07:25.212Z,100644
2017-09-07T12:09:54.309Z,100641
2017-09-07T12:12:24.018Z,100641
2017-09-07T12:14:53.110Z,100633
2017-09-07T12:17:22.234Z,100642
2017-09-07T12:19:51.554Z,100636
2017-09-07T12:22:21.678Z,100634
2017-09-07T12:24:51.756Z,100633
2017-09-07T12:27:21.099Z,100639
2017-09-07T12:29:50.204Z,100641
2017-09-07T12:32:19.503Z,100636
2017-09-07T12:34:48.853Z,100631
2017-09-07T12:37:17.934Z,100637
2017-09-07T12:39:48.642Z,100630
2017-09-07T12:42:18.242Z,100633
2017-09-07T12:44:47.343Z,100627
2017-09-07T12:47:16.524Z,100615
2017-09-07T12:49:46.901Z,100630
2017-09-07T12:52:17.078Z,100635
2017-09-07T12:54:46.193Z,100634
2017-09-07T12:57:15.655Z,100635
2017-09-07T12:59:44.750Z,100635
2017-09-07T13:02:13.852Z,100642
2017-09-07T13:04:44.202Z,100637
2017-09-07T13:07:13.535Z,100642
2017-09-07T13:09:43.861Z,100642
2017-09-07T13:12:13.242Z,100641
2017-09-07T13:14:43.283Z,100639
2017-09-07T13:17:12.431Z,100636
2017-09-07T13:19:41.708Z,100643
2017-09-07T13:22:10.860Z,100641
2017-09-07T13:24:41.142Z,100641
2017-09-07T13:27:10.600Z,100643
2017-09-07T13:29:39.797Z,100645
2017-09-07T13:32:08.882Z,100642
2017-09-07T13:34:39.517Z,100647
2017-09-07T13:37:08.725Z,100649
2017-09-07T13:39:38.215Z,100646
2017-09-07T13:42:07.762Z,100642
2017-09-07T13:44:37.037Z,100641
2017-09-07T13:47:06.359Z,100635
2017-09-07T13:49:36.599Z,100640
2017-09-07T13:52:06.607Z,100638
2017-09-07T13:54:36.464Z,100639
2017-09-07T13:57:05.716Z,100633
2017-09-07T13:59:34.822Z,100633
2017-09-07T14:02:04.477Z,100632
2017-09-07T14:04:34.825Z,100627
2017-09-07T14:07:04.568Z,100634
2017-09-07T14:09:34.070Z,100635
2017-09-07T14:12:03.317Z,100624
2017-09-07T14:14:32.656Z,100634
2017-09-07T14:17:02.900Z,100636
2017-09-07T14:19:33.121Z,100631
2017-09-07T14:22:02.319Z,100626
2017-09-07T14:24:33.135Z,100628
2017-09-07T14:27:02.350Z,100632
2017-09-07T14:29:31.756Z,100632
2017-09-07T14:32:01.274Z,100630
2017-09-07T14:34:30.782Z,100630
2017-09-07T14:37:00.692Z,100628
2017-09-07T14:39:30.053Z,100626
2017-09-07T14:42:00.079Z,100621
2017-09-07T14:44:30.633Z,100626
2017-09-07T14:47:00.123Z,100623
2017-09-07T14:49:29.512Z,100629
2017-09-07T14:51:59.133Z,100632
2017-09-07T14:54:28.247Z,100631
2017-09-07T14:56:57.924Z,100637
2017-09-07T14:59:27.459Z,100640
2017-09-07T15:01:56.558Z,100650
2017-09-07T15:04:26.879Z,100649
2017-09-07T15:06:56.223Z,100652
2017-09-07T15:09:25.320Z,100653
2017-09-07T15:11:54.447Z,100647
2017-09-07T15:14:23.640Z,100656
2017-09-07T15:16:53.247Z,100655
2017-09-07T15:19:22.347Z,100653
2017-09-07T15:21:53.506Z,100659
2017-09-07T15:24:22.633Z,100646
2017-09-07T15:26:51.800Z,100652
2017-09-07T15:29:23.254Z,100647
2017-09-07T15:31:52.382Z,100645
2017-09-07T15:34:21.540Z,100649
2017-09-07T15:36:50.877Z,100652
2017-09-07T15:39:20.040Z,100649
2017-09-07T15:41:52.778Z,100648
2017-09-07T15:44:21.909Z,100653
2017-09-07T15:46:51.112Z,100646
2017-09-07T15:49:20.747Z,100648
2017-09-07T15:51:54.108Z,100657
2017-09-07T15:54:23.797Z,100648
2017-09-07T15:56:54.932Z,100645
2017-09-07T15:59:24.069Z,100641
2017-09-07T16:01:53.159Z,100643
2017-09-07T16:04:22.266Z,100652
2017-09-07T16:06:51.740Z,100650
2017-09-07T16:09:20.859Z,100649
2017-09-07T16:11:50.626Z,100649
2017-09-07T16:14:20.126Z,100655
2017-09-07T16:16:49.304Z,100655
2017-09-07T16:19:18.418Z,100660
2017-09-07T16:21:49.884Z,100652
2017-09-07T16:24:19.017Z,100661
2017-09-07T16:26:48.994Z,100663
2017-09-07T16:29:18.397Z,100664
2017-09-07T16:31:48.342Z,100663
2017-09-07T16:34:17.463Z,100662
2017-09-07T16:36:46.574Z,100656
2017-09-07T16:39:15.768Z,100665
2017-09-07T16:41:44.866Z,100668
2017-09-07T16:44:14.375Z,100658
2017-09-07T16:46:44.535Z,100660
2017-09-07T16:49:13.714Z,100660
2017-09-07T16:51:43.354Z,100659
2017-09-07T16:54:12.447Z,100658
2017-09-07T16:56:42.399Z,100659
2017-09-07T16:59:11.762Z,100661
2017-09-07T17:01:40.895Z,100664
2017-09-07T17:04:10.203Z,100669
2017-09-07T17:06:39.522Z,100667
2017-09-07T17:09:09.629Z,100666
2017-09-07T17:11:39.099Z,100658
2017-09-07T17:14:08.362Z,100651
2017-09-07T17:16:37.473Z,100650
2017-09-07T17:19:06.772Z,100654
2017-09-07T17:21:36.186Z,100662
2017-09-07T17:24:05.790Z,100670
2017-09-07T17:26:35.052Z,100672
2017-09-07T17:29:04.519Z,100680
2017-09-07T17:31:33.916Z,100678
2017-09-07T17:34:03.228Z,100670
2017-09-07T17:36:32.824Z,100673
2017-09-07T17:39:02.518Z,100669
2017-09-07T17:41:31.992Z,100665
2017-09-07T17:44:02.003Z,100664
2017-09-07T17:46:31.638Z,100666
2017-09-07T17:49:01.081Z,100659
2017-09-07T17:51:30.848Z,100658
2017-09-07T17:54:01.181Z,100665
2017-09-07T17:56:30.789Z,100672
2017-09-07T17:59:00.362Z,100672
2017-09-07T18:01:29.551Z,100675
2017-09-07T18:03:58.825Z,100676
2017-09-07T18:06:28.472Z,100670
2017-09-07T18:08:57.604Z,100671
2017-09-07T18:11:26.804Z,100674
2017-09-07T18:13:56.142Z,100678
2017-09-07T18:16:25.302Z,100678
2017-09-07T18:18:54.423Z,100685
2017-09-07T18:21:24.574Z,100682
2017-09-07T18:23:53.753Z,100690
2017-09-07T18:26:22.899Z,100689
2017-09-07T18:28:52.170Z,100690
2017-09-07T18:31:21.275Z,100689
2017-09-07T18:33:50.406Z,100693
2017-09-07T18:36:20.710Z,100693
2017-09-07T18:38:49.817Z,100692
2017-09-07T18:41:18.949Z,100696
2017-09-07T18:43:48.448Z,100686
2017-09-07T18:46:18.580Z,100684
2017-09-07T18:48:47.722Z,100690
2017-09-07T18:51:18.034Z,100687
2017-09-07T18:53:47.145Z,100693
2017-09-07T18:56:17.126Z,100694
2017-09-07T18:58:46.274Z,100698
2017-09-07T19:01:15.974Z,100692
2017-09-07T19:03:45.085Z,100686
2017-09-07T19:06:16.174Z,100689
2017-09-07T19:08:45.284Z,100690
2017-09-07T19:11:14.381Z,100693
2017-09-07T19:13:44.049Z,100689
2017-09-07T19:16:13.189Z,100693
2017-09-07T19:18:42.423Z,100686
2017-09-07T19:21:48.665Z,100684
2017-09-07T19:24:17.891Z,100683
2017-09-07T19:26:47.783Z,100684
2017-09-07T19:29:17.106Z,100677
2017-09-07T19:31:47.067Z,100677
2017-09-07T19:34:17.138Z,100675
2017-09-07T19:36:46.490Z,100670
2017-09-07T19:39:16.364Z,100660
2017-09-07T19:41:46.292Z,100663
2017-09-07T19:44:16.478Z,100667
2017-09-07T19:46:45.605Z,100666
2017-09-07T19:49:14.789Z,100666
2017-09-07T19:51:45.100Z,100662
2017-09-07T19:54:14.237Z,100667
2017-09-07T19:56:43.994Z,100664
2017-09-07T19:59:14.274Z,100664
2017-09-07T20:01:44.505Z,100663
2017-09-07T20:04:13.731Z,100659
2017-09-07T20:06:43.133Z,100657
2017-09-07T20:09:12.325Z,100650
2017-09-07T20:11:41.427Z,100652
2017-09-07T20:14:10.937Z,100656
2017-09-07T20:16:40.213Z,100648
2017-09-07T20:19:09.511Z,100651
2017-09-07T20:21:39.042Z,100647
2017-09-07T20:24:08.712Z,100640
2017-09-07T20:26:38.096Z,100640
2017-09-07T20:29:08.173Z,100642
2017-09-07T20:31:38.897Z,100637
2017-09-07T20:34:08.034Z,100636
2017-09-07T20:36:38.285Z,100637
2017-09-07T20:39:07.384Z,100634
2017-09-07T20:41:36.488Z,100627
2017-09-07T20:44:05.986Z,100626
2017-09-07T20:46:35.121Z,100623
2017-09-07T20:49:04.230Z,100618
2017-09-07T20:51:36.550Z,100611
2017-09-07T20:54:05.723Z,100612
2017-09-07T20:56:35.800Z,100605
2017-09-07T20:59:05.230Z,100604
2017-09-07T21:01:35.555Z,100603
2017-09-07T21:04:05.454Z,100600
2017-09-07T21:06:34.920Z,100605
2017-09-07T21:09:04.084Z,100604
2017-09-07T21:11:34.337Z,100604
2017-09-07T21:14:04.732Z,100604
2017-09-07T21:16:34.201Z,100608
2017-09-07T21:19:03.411Z,100604
2017-09-07T21:21:32.741Z,100600
2017-09-07T21:24:01.891Z,100598
2017-09-07T21:26:32.265Z,100598
2017-09-07T21:29:01.590Z,100593
2017-09-07T21:31:30.816Z,100594
2017-09-07T21:34:00.174Z,100595
2017-09-07T21:36:29.679Z,100592
2017-09-07T21:38:59.039Z,100595
2017-09-07T21:41:28.408Z,100596
2017-09-07T21:43:57.943Z,100601
2017-09-07T21:46:27.243Z,100588
2017-09-07T21:48:56.947Z,100579
2017-09-07T21:51:26.256Z,100571
2017-09-07T21:53:55.751Z,100571
2017-09-07T21:56:25.057Z,100562
2017-09-07T21:58:54.982Z,100559
2017-09-07T22:01:25.097Z,100562
2017-09-07T22:03:54.780Z,100559
2017-09-07T22:06:25.573Z,100553
2017-09-07T22:08:55.687Z,100554
2017-09-07T22:11:24.951Z,100555
2017-09-07T22:13:54.333Z,100553
2017-09-07T22:16:23.557Z,100556
2017-09-07T22:18:52.762Z,100557
2017-09-07T22:21:24.041Z,100541
2017-09-07T22:23:53.333Z,100537
2017-09-07T22:26:22.518Z,100534
2017-09-07T22:28:52.818Z,100531
2017-09-07T22:31:22.960Z,100534
2017-09-07T22:33:52.953Z,100538
2017-09-07T22:36:22.252Z,100528
2017-09-07T22:38:51.351Z,100528
2017-09-07T22:41:21.558Z,100525
2017-09-07T22:43:51.698Z,100518
2017-09-07T22:46:22.620Z,100515
2017-09-07T22:48:51.816Z,100512
2017-09-07T22:51:22.060Z,100508
2017-09-07T22:53:51.985Z,100504
2017-09-07T22:56:22.315Z,100499
2017-09-07T22:58:51.471Z,100502
2017-09-07T23:01:20.602Z,100501
2017-09-07T23:03:49.973Z,100498
2017-09-07T23:06:20.034Z,100494
2017-09-07T23:08:49.219Z,100487
2017-09-07T23:11:19.176Z,100489
2017-09-07T23:13:49.094Z,100485
2017-09-07T23:16:20.054Z,100487
2017-09-07T23:18:49.267Z,100483
2017-09-07T23:21:18.383Z,100477
2017-09-07T23:23:48.278Z,100470
2017-09-07T23:26:19.313Z,100472
2017-09-07T23:28:49.227Z,100474
2017-09-07T23:31:19.143Z,100471
2017-09-07T23:33:48.402Z,100465
2017-09-07T23:36:18.327Z,100465
2017-09-07T23:38:47.452Z,100459
2017-09-07T23:41:16.677Z,100457
2017-09-07T23:43:46.703Z,100456
2017-09-07T23:46:16.760Z,100454
2017-09-07T23:48:46.255Z,100449
2017-09-07T23:51:15.358Z,100441
2017-09-07T23:53:44.456Z,100432
2017-09-07T23:56:14.506Z,100434
2017-09-07T23:58:43.614Z,100430
